Time;durP1;ratioP1;P1;durP2;ratioP2;P2;SDS_P1;SDS_P2;PMS_P1;PMS_P2;Temp;Humidity;BMP_temperature;BMP_pressure;BME280_temperature;BME280_humidity;BME280_pressure;Samples;Min_cycle;Max_cycle;Signal;HPM_P1;HPM_P2
2023/10/07 00:02:15;;;;;;;;;;;15.30;77.10;;;;;;5066593;28;19973;-83
2023/10/07 00:04:42;;;;;;;;;;;15.30;77.00;;;;;;5074809;28;19938;-83
2023/10/07 00:07:11;;;;;;;;;;;15.30;76.90;;;;;;5074973;28;19908;-83
2023/10/07 00:09:41;;;;;;;;;;;15.20;77.20;;;;;;5067441;28;19912;-84
2023/10/07 00:12:12;;;;;;;;;;;15.20;77.30;;;;;;5073492;28;19972;-83
2023/10/07 00:14:38;;;;;;;;;;;15.20;77.10;;;;;;5071348;28;19916;-83
2023/10/07 00:17:06;;;;;;;;;;;15.20;77.40;;;;;;5070772;28;19959;-83
2023/10/07 00:19:33;;;;;;;;;;;15.20;77.40;;;;;;5074050;28;19938;-83
2023/10/07 00:21:59;;;;;;;;;;;15.10;77.60;;;;;;5073739;28;19995;-84
2023/10/07 00:24:25;;;;;;;;;;;15.10;78.00;;;;;;5072603;28;19947;-80
2023/10/07 00:26:52;;;;;;;;;;;15.10;78.00;;;;;;5071690;28;19954;-79
2023/10/07 00:29:24;;;;;;;;;;;15.10;78.20;;;;;;5073989;28;19975;-84
2023/10/07 00:31:52;;;;;;;;;;;15.10;78.20;;;;;;5071128;28;19975;-84
2023/10/07 00:34:26;;;;;;;;;;;15.10;78.50;;;;;;5075301;28;19915;-84
2023/10/07 00:36:56;;;;;;;;;;;15.10;78.60;;;;;;5077263;28;19992;-79
2023/10/07 00:39:22;;;;;;;;;;;15.00;78.90;;;;;;5079413;28;20470;-82
2023/10/07 00:41:51;;;;;;;;;;;15.00;79.10;;;;;;5077588;28;19909;-82
2023/10/07 00:44:21;;;;;;;;;;;15.00;79.00;;;;;;5078794;28;20371;-82
2023/10/07 00:47:13;;;;;;;;;;;15.00;79.40;;;;;;5073376;28;19943;-81
2023/10/07 00:50:09;;;;;;;;;;;15.00;79.40;;;;;;5077043;28;19917;-83
2023/10/07 00:52:28;;;;;;;;;;;15.00;79.50;;;;;;5067228;28;20003;-79
2023/10/07 00:59:57;;;;;;;;;;;15.00;79.90;;;;;;5077182;28;19938;-79
2023/10/07 01:02:30;;;;;;;;;;;15.00;79.80;;;;;;5075581;28;19909;-79
2023/10/07 01:05:21;;;;;;;;;;;15.00;79.70;;;;;;5073700;28;19916;-79
2023/10/07 01:07:53;;;;;;;;;;;14.90;80.00;;;;;;5074756;28;19915;-79
2023/10/07 01:10:24;;;;;;;;;;;14.80;80.30;;;;;;5076874;28;19977;-79
2023/10/07 01:12:51;;;;;;;;;;;14.90;80.30;;;;;;5076701;28;19916;-79
2023/10/07 01:15:29;;;;;;;;;;;14.90;80.50;;;;;;5079384;28;19913;-78
2023/10/07 01:17:57;;;;;;;;;;;14.90;80.20;;;;;;5078338;28;19916;-79
2023/10/07 01:20:33;;;;;;;;;;;14.80;80.50;;;;;;5083436;28;19919;-78
2023/10/07 01:23:05;;;;;;;;;;;14.80;80.60;;;;;;5085616;28;19908;-78
2023/10/07 01:25:31;;;;;;;;;;;14.80;80.40;;;;;;5072421;28;19924;-78
2023/10/07 01:28:00;;;;;;;;;;;14.80;80.60;;;;;;5077150;28;20790;-78
2023/10/07 01:30:29;;;;;;;;;;;14.80;80.60;;;;;;5078807;28;19979;-78
2023/10/07 01:33:01;;;;;;;;;;;14.80;80.70;;;;;;5072632;28;20281;-79
2023/10/07 01:35:32;;;;;;;;;;;14.80;80.80;;;;;;5077730;28;20058;-79
2023/10/07 01:38:06;;;;;;;;;;;14.80;80.70;;;;;;5069059;28;19919;-79
2023/10/07 01:40:41;;;;;;;;;;;14.80;80.80;;;;;;5078830;28;19943;-79
2023/10/07 01:43:07;;;;;;;;;;;14.80;81.10;;;;;;5077880;28;20352;-79
2023/10/07 01:45:34;;;;;;;;;;;14.80;81.10;;;;;;5078752;28;19958;-79
2023/10/07 01:48:07;;;;;;;;;;;14.80;81.50;;;;;;5074579;28;19916;-79
2023/10/07 01:50:37;;;;;;;;;;;14.90;81.30;;;;;;5078218;28;19923;-79
2023/10/07 01:53:03;;;;;;;;;;;15.00;81.00;;;;;;5076426;28;19909;-78
2023/10/07 01:55:34;;;;;;;;;;;14.90;81.40;;;;;;5078164;28;19915;-79
2023/10/07 01:57:59;;;;;;;;;;;14.90;81.40;;;;;;5077654;28;20540;-79
2023/10/07 02:00:44;;;;;;;;;;;15.00;81.30;;;;;;5077810;28;19923;-79
2023/10/07 02:03:13;;;;;;;;;;;15.00;81.60;;;;;;5074933;28;19952;-78
2023/10/07 02:05:47;;;;;;;;;;;15.00;81.50;;;;;;5078027;28;19987;-79
2023/10/07 02:08:20;;;;;;;;;;;15.00;81.50;;;;;;5073956;28;19954;-79
2023/10/07 02:10:46;;;;;;;;;;;15.00;81.50;;;;;;5083850;28;19923;-79
2023/10/07 02:13:14;;;;;;;;;;;15.00;81.60;;;;;;5077329;28;19916;-79
2023/10/07 02:15:42;;;;;;;;;;;15.00;81.80;;;;;;5080421;28;19985;-79
2023/10/07 02:18:12;;;;;;;;;;;15.00;81.70;;;;;;5080402;28;19934;-79
2023/10/07 02:20:38;;;;;;;;;;;15.00;81.90;;;;;;5074336;28;19920;-77
2023/10/07 02:23:12;;;;;;;;;;;15.00;81.70;;;;;;5073326;28;20290;-78
2023/10/07 02:25:40;;;;;;;;;;;15.00;82.20;;;;;;5075625;28;19999;-79
2023/10/07 02:28:06;;;;;;;;;;;15.00;81.90;;;;;;5076429;28;19909;-79
2023/10/07 02:30:38;;;;;;;;;;;15.00;81.90;;;;;;5076885;28;20377;-79
2023/10/07 02:33:08;;;;;;;;;;;15.00;82.10;;;;;;5071411;28;19979;-78
2023/10/07 02:35:36;;;;;;;;;;;15.00;82.10;;;;;;5076434;28;19998;-79
2023/10/07 02:38:03;;;;;;;;;;;15.10;82.00;;;;;;5076405;28;19935;-78
2023/10/07 02:40:48;;;;;;;;;;;15.10;82.00;;;;;;5075660;28;19908;-79
2023/10/07 02:43:15;;;;;;;;;;;15.10;82.20;;;;;;5067552;28;20002;-79
2023/10/07 02:45:45;;;;;;;;;;;15.00;82.40;;;;;;5076136;28;19909;-78
2023/10/07 02:48:10;;;;;;;;;;;15.00;82.40;;;;;;5072865;28;19917;-79
2023/10/07 02:50:40;;;;;;;;;;;14.90;82.70;;;;;;5072470;28;20331;-78
2023/10/07 02:53:13;;;;;;;;;;;14.90;83.00;;;;;;5073602;28;19908;-80
2023/10/07 02:55:54;;;;;;;;;;;15.00;82.90;;;;;;5075327;28;19915;-79
2023/10/07 02:58:48;;;;;;;;;;;15.00;83.10;;;;;;5067654;28;19913;-78
2023/10/07 03:01:17;;;;;;;;;;;15.00;83.00;;;;;;5063823;28;19909;-78
2023/10/07 03:03:49;;;;;;;;;;;15.10;82.80;;;;;;5070453;28;19912;-79
2023/10/07 03:06:17;;;;;;;;;;;15.00;82.90;;;;;;5073424;28;20284;-78
2023/10/07 03:08:49;;;;;;;;;;;15.00;83.40;;;;;;5072840;28;19909;-78
2023/10/07 03:11:21;;;;;;;;;;;15.00;83.50;;;;;;5075039;28;19913;-79
2023/10/07 03:13:47;;;;;;;;;;;15.00;83.20;;;;;;5073052;28;19938;-78
2023/10/07 03:18:45;;;;;;;;;;;15.00;83.20;;;;;;5074216;28;20278;-79
2023/10/07 03:21:11;;;;;;;;;;;15.10;83.00;;;;;;5075185;28;20009;-79
2023/10/07 03:23:46;;;;;;;;;;;15.10;83.20;;;;;;5071788;28;19955;-79
2023/10/07 03:26:12;;;;;;;;;;;15.10;83.30;;;;;;5075174;28;19962;-79
2023/10/07 03:28:46;;;;;;;;;;;15.10;83.30;;;;;;5073042;28;20004;-79
2023/10/07 03:31:11;;;;;;;;;;;15.10;83.40;;;;;;5073995;28;20327;-79
2023/10/07 03:33:45;;;;;;;;;;;15.10;83.50;;;;;;5071374;28;19912;-79
2023/10/07 03:36:45;;;;;;;;;;;15.10;83.50;;;;;;5073707;28;19932;-79
2023/10/07 03:41:35;;;;;;;;;;;15.10;83.70;;;;;;5075206;28;19931;-79
2023/10/07 03:44:04;;;;;;;;;;;15.20;83.70;;;;;;5073824;28;19934;-78
2023/10/07 03:46:30;;;;;;;;;;;15.10;83.70;;;;;;5075005;28;19915;-79
2023/10/07 03:48:56;;;;;;;;;;;15.10;83.80;;;;;;5069469;28;20301;-79
2023/10/07 03:51:30;;;;;;;;;;;15.10;83.80;;;;;;5074679;28;20046;-78
2023/10/07 03:54:00;;;;;;;;;;;15.10;83.80;;;;;;5072486;28;19908;-77
2023/10/07 03:56:26;;;;;;;;;;;15.10;84.00;;;;;;5073738;28;19915;-79
2023/10/07 03:58:53;;;;;;;;;;;15.20;83.80;;;;;;5073709;28;19913;-79
2023/10/07 04:01:18;;;;;;;;;;;15.20;83.90;;;;;;5074754;28;20370;-79
2023/10/07 04:03:49;;;;;;;;;;;15.30;83.60;;;;;;5071215;28;19913;-79
2023/10/07 04:06:18;;;;;;;;;;;15.20;83.70;;;;;;5068241;28;19908;-79
2023/10/07 04:08:52;;;;;;;;;;;15.30;83.70;;;;;;5074837;28;20439;-78
2023/10/07 04:11:19;;;;;;;;;;;15.30;83.70;;;;;;5070660;28;19913;-79
2023/10/07 04:13:45;;;;;;;;;;;15.30;83.70;;;;;;5076146;28;19916;-79
2023/10/07 04:16:23;;;;;;;;;;;15.20;84.20;;;;;;5078494;28;19919;-79
2023/10/07 04:18:53;;;;;;;;;;;15.20;84.20;;;;;;5075568;28;20466;-79
2023/10/07 04:21:20;;;;;;;;;;;15.20;84.40;;;;;;5076033;28;19938;-79
2023/10/07 04:23:46;;;;;;;;;;;15.30;84.10;;;;;;5077344;28;20393;-78
2023/10/07 04:26:19;;;;;;;;;;;15.30;84.00;;;;;;5078244;28;19909;-79
2023/10/07 04:28:48;;;;;;;;;;;15.30;84.20;;;;;;5077948;28;19962;-79
2023/10/07 04:31:14;;;;;;;;;;;15.30;84.20;;;;;;5068607;28;20003;-78
2023/10/07 04:33:41;;;;;;;;;;;15.30;84.30;;;;;;5074738;28;20550;-78
2023/10/07 04:36:11;;;;;;;;;;;15.20;84.60;;;;;;5076407;28;19963;-79
2023/10/07 04:43:59;;;;;;;;;;;15.30;84.40;;;;;;5076010;28;20288;-78
2023/10/07 04:46:28;;;;;;;;;;;15.40;84.60;;;;;;5076571;28;19908;-78
2023/10/07 04:48:55;;;;;;;;;;;15.30;84.70;;;;;;5074305;28;20008;-78
2023/10/07 04:51:46;;;;;;;;;;;15.30;84.70;;;;;;5075792;28;19916;-79
2023/10/07 04:54:20;;;;;;;;;;;15.40;84.70;;;;;;5077125;28;19970;-78
2023/10/07 04:56:48;;;;;;;;;;;15.50;84.60;;;;;;5075467;28;20275;-78
2023/10/07 04:59:15;;;;;;;;;;;15.50;84.30;;;;;;5067951;28;19917;-79
2023/10/07 05:01:48;;;;;;;;;;;15.40;84.70;;;;;;5076683;28;19919;-78
2023/10/07 05:04:15;;;;;;;;;;;15.50;84.40;;;;;;5066381;28;19947;-78
2023/10/07 05:06:43;;;;;;;;;;;15.40;84.60;;;;;;5075146;28;19935;-78
2023/10/07 05:09:09;;;;;;;;;;;15.40;84.70;;;;;;5076362;28;19909;-78
2023/10/07 05:11:42;;;;;;;;;;;15.40;85.00;;;;;;5076012;28;19921;-78
2023/10/07 05:14:08;;;;;;;;;;;15.40;85.00;;;;;;5072393;28;19917;-77
2023/10/07 05:16:37;;;;;;;;;;;15.50;84.80;;;;;;5071212;28;19912;-77
2023/10/07 05:19:03;;;;;;;;;;;15.50;84.70;;;;;;5071874;28;19913;-78
2023/10/07 05:21:31;;;;;;;;;;;15.40;85.10;;;;;;5072333;28;19952;-77
2023/10/07 05:24:01;;;;;;;;;;;15.40;85.30;;;;;;5074120;28;20356;-78
2023/10/07 05:26:27;;;;;;;;;;;15.40;85.20;;;;;;5077587;28;20320;-78
2023/10/07 05:28:52;;;;;;;;;;;15.40;85.40;;;;;;5076285;28;19919;-78
2023/10/07 05:31:18;;;;;;;;;;;15.50;84.90;;;;;;5076328;28;19912;-78
2023/10/07 05:33:44;;;;;;;;;;;15.40;85.20;;;;;;5073125;28;19919;-78
2023/10/07 05:36:17;;;;;;;;;;;15.40;85.40;;;;;;5074302;28;19947;-78
2023/10/07 05:38:50;;;;;;;;;;;15.40;85.20;;;;;;5077643;28;19908;-78
2023/10/07 05:41:16;;;;;;;;;;;15.50;85.30;;;;;;5067483;28;20007;-78
2023/10/07 05:43:43;;;;;;;;;;;15.40;85.10;;;;;;5075821;28;19956;-78
2023/10/07 05:46:10;;;;;;;;;;;15.50;85.50;;;;;;5076165;28;19936;-78
2023/10/07 05:48:38;;;;;;;;;;;15.50;85.00;;;;;;5073111;28;19913;-78
2023/10/07 05:51:09;;;;;;;;;;;15.50;85.30;;;;;;5076137;28;19965;-78
2023/10/07 05:53:37;;;;;;;;;;;15.50;85.20;;;;;;5074342;28;19915;-78
2023/10/07 05:56:06;;;;;;;;;;;15.40;85.60;;;;;;5076599;28;20301;-78
2023/10/07 05:58:39;;;;;;;;;;;15.50;85.30;;;;;;5074114;28;19916;-78
2023/10/07 06:01:05;;;;;;;;;;;15.60;85.10;;;;;;5084118;28;19912;-78
2023/10/07 06:03:32;;;;;;;;;;;15.60;85.10;;;;;;5070586;28;20515;-77
2023/10/07 06:05:58;;;;;;;;;;;15.60;85.00;;;;;;5075916;28;19924;-78
2023/10/07 06:08:27;;;;;;;;;;;15.60;85.00;;;;;;5076799;28;20274;-79
2023/10/07 06:10:54;;;;;;;;;;;15.60;85.10;;;;;;5076345;28;20373;-78
2023/10/07 06:13:20;;;;;;;;;;;15.60;85.00;;;;;;5074074;28;19952;-78
2023/10/07 06:15:45;;;;;;;;;;;15.60;85.00;;;;;;5076099;28;20400;-78
2023/10/07 06:18:11;;;;;;;;;;;15.60;85.20;;;;;;5073728;28;20006;-78
2023/10/07 06:20:46;;;;;;;;;;;15.60;85.10;;;;;;5074985;28;19916;-78
2023/10/07 06:23:15;;;;;;;;;;;15.60;85.20;;;;;;5067326;28;19908;-78
2023/10/07 06:25:50;;;;;;;;;;;15.60;84.90;;;;;;5074060;28;19917;-78
2023/10/07 06:28:24;;;;;;;;;;;15.60;85.20;;;;;;5068399;28;20365;-78
2023/10/07 06:30:51;;;;;;;;;;;15.70;85.20;;;;;;5075468;28;19916;-78
2023/10/07 06:33:19;;;;;;;;;;;15.80;84.80;;;;;;5069442;28;19913;-78
2023/10/07 06:35:44;;;;;;;;;;;15.60;84.90;;;;;;5072783;28;19920;-77
2023/10/07 06:38:11;;;;;;;;;;;15.70;84.80;;;;;;5076299;28;19908;-78
2023/10/07 06:40:36;;;;;;;;;;;15.70;84.90;;;;;;5075958;28;19936;-78
2023/10/07 06:43:02;;;;;;;;;;;15.80;84.80;;;;;;5075333;28;19912;-78
2023/10/07 06:45:39;;;;;;;;;;;15.80;84.80;;;;;;5075619;28;19913;-78
2023/10/07 06:48:09;;;;;;;;;;;15.80;84.80;;;;;;5072782;28;19963;-78
2023/10/07 06:50:34;;;;;;;;;;;15.70;84.90;;;;;;5075793;28;19966;-78
2023/10/07 06:53:00;;;;;;;;;;;15.80;84.70;;;;;;5076774;28;21805;-77
2023/10/07 06:55:28;;;;;;;;;;;15.70;84.90;;;;;;5084144;28;19924;-77
2023/10/07 06:57:56;;;;;;;;;;;15.70;85.10;;;;;;5087786;28;19908;-77
2023/10/07 07:00:23;;;;;;;;;;;15.70;84.90;;;;;;5077521;28;20016;-78
2023/10/07 07:02:54;;;;;;;;;;;15.80;85.00;;;;;;5072932;28;19920;-78
2023/10/07 07:05:22;;;;;;;;;;;15.80;85.00;;;;;;5070323;28;19924;-78
2023/10/07 07:07:52;;;;;;;;;;;15.90;84.90;;;;;;5074427;28;19909;-78
2023/10/07 07:10:27;;;;;;;;;;;15.90;84.80;;;;;;5072237;28;19959;-78
2023/10/07 07:13:03;;;;;;;;;;;16.00;84.30;;;;;;5075595;28;19909;-78
2023/10/07 07:15:36;;;;;;;;;;;16.00;84.40;;;;;;5076541;28;19909;-79
2023/10/07 07:18:08;;;;;;;;;;;15.90;84.60;;;;;;5072129;28;19921;-78
2023/10/07 07:20:48;;;;;;;;;;;16.00;84.60;;;;;;5072915;28;19913;-78
2023/10/07 07:23:16;;;;;;;;;;;16.00;84.40;;;;;;5074599;28;20019;-78
2023/10/07 07:25:49;;;;;;;;;;;16.00;84.20;;;;;;5075953;28;19909;-78
2023/10/07 07:28:16;;;;;;;;;;;16.00;84.30;;;;;;5068206;28;20386;-78
2023/10/07 07:30:43;;;;;;;;;;;16.00;84.30;;;;;;5075334;28;19916;-78
2023/10/07 07:33:11;;;;;;;;;;;16.00;84.30;;;;;;5089391;28;19912;-78
2023/10/07 07:35:38;;;;;;;;;;;16.00;84.10;;;;;;5072544;28;19908;-78
2023/10/07 07:38:29;;;;;;;;;;;16.00;84.40;;;;;;5072103;28;19944;-78
2023/10/07 07:41:05;;;;;;;;;;;16.10;84.10;;;;;;5070575;28;20369;-78
2023/10/07 07:43:31;;;;;;;;;;;16.10;84.00;;;;;;5072732;28;19920;-78
2023/10/07 07:48:54;;;;;;;;;;;16.20;83.70;;;;;;5060948;28;19944;-78
2023/10/07 07:51:24;;;;;;;;;;;16.20;83.80;;;;;;5073108;28;19917;-78
2023/10/07 07:53:50;;;;;;;;;;;16.20;84.10;;;;;;5072601;28;19908;-78
2023/10/07 07:56:16;;;;;;;;;;;16.20;83.70;;;;;;5074209;28;19909;-78
2023/10/07 07:58:41;;;;;;;;;;;16.20;83.80;;;;;;5072650;28;20284;-78
2023/10/07 08:01:15;;;;;;;;;;;16.30;84.00;;;;;;5085332;28;20324;-78
2023/10/07 08:03:41;;;;;;;;;;;16.30;84.00;;;;;;5066659;28;19916;-78
2023/10/07 08:06:11;;;;;;;;;;;16.40;83.60;;;;;;5074423;28;20331;-78
2023/10/07 08:08:37;;;;;;;;;;;16.50;83.80;;;;;;5072541;28;19959;-78
2023/10/07 08:11:02;;;;;;;;;;;16.50;83.70;;;;;;5070611;28;19964;-78
2023/10/07 08:13:28;;;;;;;;;;;16.60;83.50;;;;;;5071567;28;19916;-78
2023/10/07 08:15:54;;;;;;;;;;;16.80;83.00;;;;;;5073538;28;19954;-79
2023/10/07 08:18:28;;;;;;;;;;;16.90;82.50;;;;;;5071898;28;20274;-79
2023/10/07 08:21:06;;;;;;;;;;;16.90;82.20;;;;;;5070641;28;20331;-78
2023/10/07 08:23:40;;;;;;;;;;;16.90;82.00;;;;;;5070992;28;20059;-77
2023/10/07 08:26:09;;;;;;;;;;;16.90;82.30;;;;;;5068656;28;19917;-78
2023/10/07 08:28:46;;;;;;;;;;;17.00;81.90;;;;;;5065069;28;20370;-77
2023/10/07 08:31:19;;;;;;;;;;;17.00;82.20;;;;;;5070743;28;19916;-78
2023/10/07 08:34:09;;;;;;;;;;;17.00;82.20;;;;;;5071079;28;19919;-78
2023/10/07 08:36:36;;;;;;;;;;;17.20;81.70;;;;;;5071330;28;19935;-78
2023/10/07 08:39:16;;;;;;;;;;;17.30;81.60;;;;;;5065499;28;20424;-78
2023/10/07 08:41:47;;;;;;;;;;;17.40;81.20;;;;;;5068906;28;19968;-78
2023/10/07 08:44:13;;;;;;;;;;;17.50;80.90;;;;;;5065710;28;20288;-78
2023/10/07 08:46:39;;;;;;;;;;;17.50;80.40;;;;;;5072333;28;19995;-78
2023/10/07 08:49:12;;;;;;;;;;;17.60;80.30;;;;;;5072111;28;20325;-79
2023/10/07 08:51:41;;;;;;;;;;;17.60;80.10;;;;;;5072198;28;19942;-78
2023/10/07 08:54:11;;;;;;;;;;;17.60;80.10;;;;;;5070663;28;20926;-78
2023/10/07 08:56:37;;;;;;;;;;;17.50;80.10;;;;;;5071198;28;20336;-82
2023/10/07 08:59:12;;;;;;;;;;;17.50;80.40;;;;;;5073093;28;19920;-81
2023/10/07 09:01:42;;;;;;;;;;;17.40;80.60;;;;;;5086838;28;19912;-81
2023/10/07 09:04:07;;;;;;;;;;;17.40;80.60;;;;;;5088147;28;20007;-80
2023/10/07 09:06:36;;;;;;;;;;;17.40;80.40;;;;;;5076120;28;19958;-82
2023/10/07 09:09:06;;;;;;;;;;;17.50;80.20;;;;;;5077116;28;19999;-83
2023/10/07 09:11:32;;;;;;;;;;;17.40;80.90;;;;;;5076971;28;20439;-83
2023/10/07 09:14:02;;;;;;;;;;;17.30;80.80;;;;;;5074990;28;19916;-83
2023/10/07 09:16:32;;;;;;;;;;;17.30;81.10;;;;;;5073719;28;20050;-82
2023/10/07 09:18:59;;;;;;;;;;;17.40;80.80;;;;;;5070613;28;19913;-82
2023/10/07 09:21:33;;;;;;;;;;;17.40;80.80;;;;;;5072570;28;19919;-82
2023/10/07 09:23:59;;;;;;;;;;;17.30;80.80;;;;;;5070656;28;19919;-81
2023/10/07 09:26:34;;;;;;;;;;;17.30;81.20;;;;;;5073791;28;19918;-83
2023/10/07 09:29:21;;;;;;;;;;;17.20;81.50;;;;;;5078809;28;19908;-81
2023/10/07 09:31:56;;;;;;;;;;;17.30;81.50;;;;;;5079159;28;19955;-81
2023/10/07 09:34:59;;;;;;;;;;;17.50;81.10;;;;;;5071089;28;19908;-83
2023/10/07 09:37:26;;;;;;;;;;;17.50;81.00;;;;;;5069426;28;19956;-83
2023/10/07 09:40:03;;;;;;;;;;;17.60;80.90;;;;;;5074310;28;19920;-83
2023/10/07 09:42:45;;;;;;;;;;;17.60;80.60;;;;;;5073359;28;19920;-84
2023/10/07 09:45:17;;;;;;;;;;;17.60;80.30;;;;;;5075731;28;19928;-83
2023/10/07 09:47:44;;;;;;;;;;;17.60;80.50;;;;;;5074613;28;19916;-83
2023/10/07 09:50:19;;;;;;;;;;;17.70;80.50;;;;;;5082615;28;19920;-83
2023/10/07 09:52:48;;;;;;;;;;;17.70;80.30;;;;;;5065059;28;19969;-82
2023/10/07 09:55:28;;;;;;;;;;;17.90;80.00;;;;;;5066332;28;20556;-84
2023/10/07 09:58:00;;;;;;;;;;;18.00;79.40;;;;;;5068886;28;19955;-83
2023/10/07 10:01:05;;;;;;;;;;;18.10;79.10;;;;;;5065851;28;20187;-83
2023/10/07 10:03:30;;;;;;;;;;;18.10;78.70;;;;;;5043568;28;19981;-84
2023/10/07 10:06:24;;;;;;;;;;;18.20;78.80;;;;;;5053764;28;20351;-82
2023/10/07 10:09:08;;;;;;;;;;;18.20;78.70;;;;;;5054661;28;19931;-81
2023/10/07 10:16:46;;;;;;;;;;;18.50;78.20;;;;;;5064694;28;19966;-85
2023/10/07 10:19:44;;;;;;;;;;;18.60;78.40;;;;;;5063766;28;19956;-83
2023/10/07 10:22:10;;;;;;;;;;;18.60;78.10;;;;;;5060211;28;19970;-83
2023/10/07 10:24:43;;;;;;;;;;;18.60;77.60;;;;;;5065635;28;19927;-83
2023/10/07 10:27:13;;;;;;;;;;;18.60;77.70;;;;;;5078014;28;19917;-83
2023/10/07 10:29:52;;;;;;;;;;;18.60;77.60;;;;;;5061995;28;19986;-84
2023/10/07 10:32:28;;;;;;;;;;;18.70;77.90;;;;;;5064734;28;19970;-83
2023/10/07 10:34:55;;;;;;;;;;;18.80;77.70;;;;;;5064697;28;19921;-82
2023/10/07 10:37:23;;;;;;;;;;;18.80;77.40;;;;;;5060188;28;20367;-83
2023/10/07 10:39:49;;;;;;;;;;;18.90;77.40;;;;;;5058925;28;20833;-83
2023/10/07 10:42:14;;;;;;;;;;;19.00;77.30;;;;;;5064088;28;19928;-84
2023/10/07 10:44:42;;;;;;;;;;;19.00;77.20;;;;;;5060347;28;19916;-83
2023/10/07 10:47:09;;;;;;;;;;;19.10;77.20;;;;;;5068156;28;19931;-83
2023/10/07 10:49:43;;;;;;;;;;;19.10;76.30;;;;;;5078917;28;19948;-82
2023/10/07 10:52:10;;;;;;;;;;;19.10;76.80;;;;;;5071419;28;20443;-84
2023/10/07 10:54:36;;;;;;;;;;;19.20;76.40;;;;;;5072455;28;19913;-85
2023/10/07 10:57:05;;;;;;;;;;;19.40;75.90;;;;;;5078999;28;19916;-83
2023/10/07 10:59:40;;;;;;;;;;;19.50;75.30;;;;;;5082182;28;19959;-83
2023/10/07 11:02:06;;;;;;;;;;;19.50;75.60;;;;;;5081992;28;20291;-83
2023/10/07 11:04:32;;;;;;;;;;;19.50;75.10;;;;;;5077989;28;19970;-85
2023/10/07 11:06:58;;;;;;;;;;;19.60;75.20;;;;;;5075390;28;19916;-83
2023/10/07 11:09:26;;;;;;;;;;;19.60;74.50;;;;;;5077517;28;20398;-84
2023/10/07 11:11:55;;;;;;;;;;;19.70;74.10;;;;;;5069988;28;19916;-84
2023/10/07 11:14:21;;;;;;;;;;;19.80;74.30;;;;;;5072221;28;19920;-83
2023/10/07 11:16:47;;;;;;;;;;;19.70;74.00;;;;;;5072988;28;21029;-82
2023/10/07 11:19:14;;;;;;;;;;;19.90;73.80;;;;;;5063943;28;19913;-82
2023/10/07 11:21:48;;;;;;;;;;;20.00;73.60;;;;;;5069527;28;19914;-83
2023/10/07 11:24:24;;;;;;;;;;;20.00;74.00;;;;;;5063721;28;20013;-83
2023/10/07 11:26:51;;;;;;;;;;;20.10;73.20;;;;;;5074477;28;19923;-82
2023/10/07 11:29:16;;;;;;;;;;;20.10;72.50;;;;;;5068737;28;20297;-81
2023/10/07 11:31:42;;;;;;;;;;;20.20;72.40;;;;;;5070287;28;19919;-82
2023/10/07 11:34:10;;;;;;;;;;;20.30;72.30;;;;;;5071213;28;19916;-81
2023/10/07 11:36:48;;;;;;;;;;;20.40;72.20;;;;;;5071893;28;19915;-82
2023/10/07 11:39:14;;;;;;;;;;;20.40;72.20;;;;;;5072007;28;20408;-82
2023/10/07 11:41:41;;;;;;;;;;;20.50;72.30;;;;;;5068097;28;19909;-82
2023/10/07 11:44:09;;;;;;;;;;;20.50;70.90;;;;;;5069005;28;20555;-83
2023/10/07 11:46:41;;;;;;;;;;;20.50;71.40;;;;;;5071986;28;19908;-81
2023/10/07 11:49:07;;;;;;;;;;;20.50;70.90;;;;;;5068197;28;20405;-82
2023/10/07 11:51:33;;;;;;;;;;;20.50;70.90;;;;;;5068701;28;19921;-82
2023/10/07 11:54:00;;;;;;;;;;;20.40;71.10;;;;;;5063222;28;19912;-82
2023/10/07 11:56:27;;;;;;;;;;;20.50;71.10;;;;;;5069549;28;19934;-82
2023/10/07 11:58:53;;;;;;;;;;;20.30;71.40;;;;;;5069137;28;19934;-81
2023/10/07 12:01:20;;;;;;;;;;;20.30;71.70;;;;;;5070958;28;20331;-83
2023/10/07 12:03:46;;;;;;;;;;;20.40;71.70;;;;;;5061648;28;19908;-82
2023/10/07 12:06:11;;;;;;;;;;;20.40;71.90;;;;;;5063858;28;19919;-82
2023/10/07 12:08:38;;;;;;;;;;;20.50;71.90;;;;;;5071905;28;19995;-82
2023/10/07 12:11:05;;;;;;;;;;;20.50;71.40;;;;;;5058448;28;19963;-83
2023/10/07 12:13:31;;;;;;;;;;;20.50;71.60;;;;;;5070439;28;19963;-82
2023/10/07 12:15:56;;;;;;;;;;;20.50;71.20;;;;;;5062118;28;19909;-83
2023/10/07 12:18:22;;;;;;;;;;;20.50;71.40;;;;;;5072626;28;19908;-81
2023/10/07 12:20:47;;;;;;;;;;;20.50;71.50;;;;;;5071249;28;19909;-82
2023/10/07 12:23:13;;;;;;;;;;;20.70;70.40;;;;;;5070504;28;20003;-83
2023/10/07 12:25:38;;;;;;;;;;;20.80;70.60;;;;;;5071432;28;19908;-83
2023/10/07 12:28:08;;;;;;;;;;;20.90;70.00;;;;;;5072385;28;19950;-83
2023/10/07 12:30:34;;;;;;;;;;;20.90;69.30;;;;;;5072167;28;19915;-83
2023/10/07 12:32:59;;;;;;;;;;;20.80;70.10;;;;;;5066997;28;19909;-82
2023/10/07 12:35:28;;;;;;;;;;;20.80;70.40;;;;;;5072008;28;19926;-83
2023/10/07 12:37:55;;;;;;;;;;;20.80;69.30;;;;;;5074920;28;19909;-83
2023/10/07 12:40:21;;;;;;;;;;;20.80;70.10;;;;;;5073813;28;19954;-83
2023/10/07 12:42:52;;;;;;;;;;;20.70;70.40;;;;;;5076051;28;19908;-84
2023/10/07 12:45:18;;;;;;;;;;;20.70;70.40;;;;;;5075056;28;19915;-82
2023/10/07 12:47:44;;;;;;;;;;;20.80;69.70;;;;;;5073221;28;19909;-81
2023/10/07 12:52:55;;;;;;;;;;;20.70;68.20;;;;;;5074973;28;19939;-82
2023/10/07 12:55:21;;;;;;;;;;;20.60;68.10;;;;;;5076792;28;19909;-83
2023/10/07 12:57:49;;;;;;;;;;;20.60;68.00;;;;;;5076849;28;19950;-82
2023/10/07 13:00:29;;;;;;;;;;;20.70;68.40;;;;;;5067083;28;19915;-81
2023/10/07 13:02:54;;;;;;;;;;;20.70;67.80;;;;;;5071867;28;20391;-84
2023/10/07 13:05:22;;;;;;;;;;;20.70;68.20;;;;;;5075841;28;19915;-83
2023/10/07 13:07:53;;;;;;;;;;;20.70;68.00;;;;;;5076603;28;20481;-83
2023/10/07 13:10:18;;;;;;;;;;;20.70;67.70;;;;;;5073606;28;20289;-83
2023/10/07 13:12:44;;;;;;;;;;;20.80;67.20;;;;;;5074721;28;20397;-83
2023/10/07 13:15:16;;;;;;;;;;;20.80;67.10;;;;;;5074164;28;19928;-83
2023/10/07 13:17:48;;;;;;;;;;;20.80;67.50;;;;;;5074875;28;20248;-83
2023/10/07 13:20:20;;;;;;;;;;;20.80;67.70;;;;;;5074016;28;19995;-82
2023/10/07 13:22:49;;;;;;;;;;;20.70;67.60;;;;;;5073318;28;20610;-83
2023/10/07 13:25:16;;;;;;;;;;;20.80;68.10;;;;;;5075941;28;20007;-83
2023/10/07 13:27:43;;;;;;;;;;;20.80;68.00;;;;;;5074484;28;19909;-83
2023/10/07 13:30:11;;;;;;;;;;;20.80;67.30;;;;;;5075309;28;20361;-83
2023/10/07 13:32:37;;;;;;;;;;;20.90;67.00;;;;;;5074612;28;19943;-82
2023/10/07 13:35:08;;;;;;;;;;;20.90;67.20;;;;;;5075364;28;20335;-83
2023/10/07 13:37:34;;;;;;;;;;;20.90;67.70;;;;;;5076530;28;19916;-83
2023/10/07 13:40:03;;;;;;;;;;;20.80;67.90;;;;;;5075078;28;19932;-82
2023/10/07 13:42:32;;;;;;;;;;;20.90;67.60;;;;;;5072794;28;19916;-82
2023/10/07 13:44:57;;;;;;;;;;;20.90;66.60;;;;;;5075512;28;19916;-81
2023/10/07 13:47:23;;;;;;;;;;;20.80;66.30;;;;;;5077921;28;19954;-84
2023/10/07 13:49:49;;;;;;;;;;;20.90;66.60;;;;;;5076235;28;19912;-83
2023/10/07 13:52:21;;;;;;;;;;;20.90;67.00;;;;;;5074288;28;19917;-83
2023/10/07 13:54:59;;;;;;;;;;;21.00;65.50;;;;;;5075954;28;19962;-83
2023/10/07 13:57:26;;;;;;;;;;;21.00;65.80;;;;;;5070719;28;19936;-85
2023/10/07 13:59:51;;;;;;;;;;;20.90;66.50;;;;;;5076596;28;19926;-83
2023/10/07 14:02:19;;;;;;;;;;;21.00;66.30;;;;;;5076124;28;19978;-87
2023/10/07 14:04:47;;;;;;;;;;;21.10;66.00;;;;;;5075775;28;19920;-84
2023/10/07 14:07:13;;;;;;;;;;;21.10;65.90;;;;;;5076195;28;19917;-82
2023/10/07 14:09:39;;;;;;;;;;;21.10;66.00;;;;;;5075543;28;19974;-83
2023/10/07 14:12:06;;;;;;;;;;;21.10;65.90;;;;;;5076437;28;19916;-82
2023/10/07 14:14:32;;;;;;;;;;;21.10;66.20;;;;;;5078955;28;19920;-82
2023/10/07 14:17:00;;;;;;;;;;;21.20;66.00;;;;;;5066562;28;19913;-82
2023/10/07 14:19:26;;;;;;;;;;;21.10;65.70;;;;;;5061144;28;19912;-83
2023/10/07 14:21:52;;;;;;;;;;;21.20;65.40;;;;;;5072533;28;19917;-82
2023/10/07 14:24:19;;;;;;;;;;;21.30;65.30;;;;;;5072174;28;19919;-82
2023/10/07 14:26:45;;;;;;;;;;;21.30;65.00;;;;;;5073244;28;19920;-82
2023/10/07 14:29:11;;;;;;;;;;;21.30;65.10;;;;;;5072851;28;20067;-80
2023/10/07 14:31:36;;;;;;;;;;;21.40;65.00;;;;;;5075166;28;20336;-83
2023/10/07 14:34:07;;;;;;;;;;;21.50;64.40;;;;;;5074472;28;19920;-84
2023/10/07 14:36:34;;;;;;;;;;;21.40;64.60;;;;;;5069233;28;19920;-84
2023/10/07 14:38:59;;;;;;;;;;;21.40;65.00;;;;;;5075244;28;20369;-84
2023/10/07 14:41:26;;;;;;;;;;;21.30;64.90;;;;;;5075468;28;19923;-81
2023/10/07 14:43:52;;;;;;;;;;;21.30;65.00;;;;;;5071193;28;19918;-81
2023/10/07 14:46:18;;;;;;;;;;;21.20;65.40;;;;;;5076285;28;20003;-84
2023/10/07 14:48:46;;;;;;;;;;;21.10;66.10;;;;;;5073577;28;19920;-84
2023/10/07 14:51:12;;;;;;;;;;;21.00;66.50;;;;;;5073299;28;22341;-83
2023/10/07 14:53:39;;;;;;;;;;;21.00;66.60;;;;;;5072474;28;19908;-83
2023/10/07 14:56:08;;;;;;;;;;;21.00;66.90;;;;;;5072404;28;19912;-84
2023/10/07 14:58:36;;;;;;;;;;;20.90;66.70;;;;;;5073262;28;19957;-84